createdAt,value
2024-03-12T00:01:11.362Z,8.97
2024-03-12T00:03:45.494Z,8.43
2024-03-12T00:06:14.279Z,8.70
2024-03-12T00:08:45.105Z,9.30
2024-03-12T00:11:33.083Z,9.00
2024-03-12T00:14:02.530Z,8.03
2024-03-12T00:16:42.548Z,8.23
2024-03-12T00:19:28.560Z,8.60
2024-03-12T00:28:08.716Z,7.77
2024-03-12T00:30:54.139Z,7.43
2024-03-12T00:36:39.894Z,7.13
2024-03-12T00:46:03.522Z,6.77
2024-03-12T00:49:26.086Z,6.00
2024-03-12T01:10:27.388Z,5.10
2024-03-12T01:16:58.714Z,4.70
2024-03-12T02:05:15.828Z,3.13
2024-03-12T02:07:47.213Z,3.70
2024-03-12T02:10:16.713Z,2.83
2024-03-12T02:12:46.421Z,3.10
2024-03-12T02:15:19.359Z,2.90
2024-03-12T02:17:48.813Z,2.90
2024-03-12T02:20:19.393Z,2.93
2024-03-12T02:22:48.568Z,2.77
2024-03-12T02:25:19.125Z,2.67
2024-03-12T02:27:49.242Z,3.23
2024-03-12T02:30:21.160Z,2.20
2024-03-12T02:32:50.241Z,2.47
2024-03-12T02:35:21.189Z,2.43
2024-03-12T02:37:52.870Z,2.63
2024-03-12T02:40:25.421Z,2.93
2024-03-12T02:42:54.569Z,3.23
2024-03-12T02:45:25.263Z,2.73
2024-03-12T02:47:58.051Z,2.60
2024-03-12T02:50:35.102Z,2.50
2024-03-12T02:53:04.177Z,2.47
2024-03-12T02:55:35.142Z,2.50
2024-03-12T02:58:06.046Z,2.40
2024-03-12T03:00:39.333Z,2.07
2024-03-12T03:03:10.758Z,1.30
2024-03-12T03:05:41.565Z,0.77
2024-03-12T03:08:12.664Z,0.70
2024-03-12T03:10:43.255Z,0.70
2024-03-12T03:13:12.811Z,0.60
2024-03-12T03:15:41.653Z,0.50
2024-03-12T03:18:12.828Z,0.60
2024-03-12T03:20:43.194Z,0.60
2024-03-12T03:23:12.617Z,0.80
2024-03-12T03:25:44.463Z,0.30
2024-03-12T03:28:13.501Z,0.50
2024-03-12T03:30:43.579Z,0.40
2024-03-12T03:33:13.126Z,0.40
2024-03-12T03:35:43.513Z,0.40
2024-03-12T03:41:09.413Z,0.43
2024-03-12T03:43:53.409Z,0.80
2024-03-12T03:49:09.816Z,0.37
2024-03-12T03:51:54.232Z,0.57
2024-03-12T03:54:36.460Z,0.70
2024-03-12T03:57:12.704Z,1.60
2024-03-12T03:59:43.380Z,1.07
2024-03-12T04:02:25.489Z,1.90
2024-03-12T04:04:57.409Z,1.67
2024-03-12T04:07:27.539Z,1.13
2024-03-12T04:10:11.199Z,2.47
2024-03-12T04:12:46.176Z,1.23
2024-03-12T04:15:30.945Z,1.70
2024-03-12T04:20:45.416Z,2.23
2024-03-12T04:23:23.725Z,2.50
2024-03-12T04:25:55.598Z,2.40
2024-03-12T04:28:26.311Z,2.53
2024-03-12T04:31:11.216Z,2.43
2024-03-12T04:33:41.816Z,3.10
2024-03-12T04:36:20.689Z,3.10
2024-03-12T04:38:59.163Z,2.67
2024-03-12T04:41:27.689Z,4.37
2024-03-12T04:44:02.312Z,2.73
2024-03-12T04:46:37.530Z,3.53
2024-03-12T04:49:10.690Z,3.07
2024-03-12T04:51:39.517Z,4.30
2024-03-12T04:54:18.072Z,4.53
2024-03-12T04:57:03.999Z,4.10
2024-03-12T04:59:39.020Z,5.23
2024-03-12T05:02:21.637Z,4.40
2024-03-12T05:04:52.250Z,4.10
2024-03-12T05:07:21.975Z,3.67
2024-03-12T05:09:56.397Z,3.57
2024-03-12T05:12:26.227Z,3.53
2024-03-12T05:14:59.388Z,3.27
2024-03-12T05:17:30.463Z,3.60
2024-03-12T05:20:03.458Z,4.13
2024-03-12T05:22:36.060Z,4.80
2024-03-12T05:25:11.403Z,4.50
2024-03-12T05:27:48.234Z,2.73
2024-03-12T05:30:22.272Z,4.30
2024-03-12T05:32:55.364Z,4.07
2024-03-12T05:35:33.032Z,3.37
2024-03-12T05:38:09.384Z,4.43
2024-03-12T05:40:58.126Z,3.70
2024-03-12T05:43:43.985Z,3.00
2024-03-12T05:46:43.513Z,3.90
2024-03-12T05:49:16.283Z,4.07
2024-03-12T05:51:48.173Z,4.20
2024-03-12T05:54:44.910Z,5.17
2024-03-12T05:57:16.498Z,3.43
2024-03-12T05:59:44.974Z,4.97
2024-03-12T06:02:21.123Z,4.80
2024-03-12T06:04:49.622Z,3.20
2024-03-12T06:07:26.201Z,2.70
2024-03-12T06:09:56.211Z,3.60
2024-03-12T06:12:40.793Z,3.47
2024-03-12T06:15:20.810Z,4.10
2024-03-12T06:18:08.845Z,2.83
2024-03-12T06:20:43.319Z,3.60
2024-03-12T06:23:12.579Z,3.50
2024-03-12T06:25:48.752Z,5.00
2024-03-12T06:28:17.974Z,2.70
2024-03-12T06:30:47.309Z,3.03
2024-03-12T06:33:19.509Z,3.00
2024-03-12T06:35:49.418Z,4.13
2024-03-12T06:38:28.056Z,3.53
2024-03-12T06:41:08.799Z,3.07
2024-03-12T06:43:42.496Z,3.17
2024-03-12T06:46:17.810Z,3.10
2024-03-12T06:48:48.839Z,2.77
2024-03-12T06:51:17.739Z,3.87
2024-03-12T06:53:46.978Z,2.87
2024-03-12T06:56:18.647Z,3.97
2024-03-12T06:58:50.500Z,4.83
2024-03-12T07:01:21.003Z,3.70
2024-03-12T07:03:54.427Z,3.50
2024-03-12T07:06:37.063Z,3.73
2024-03-12T07:09:13.557Z,3.70
2024-03-12T07:11:44.205Z,3.50
2024-03-12T07:14:27.630Z,4.30
2024-03-12T07:16:58.869Z,3.80
2024-03-12T07:19:34.265Z,3.43
2024-03-12T07:22:08.570Z,5.43
2024-03-12T07:24:42.016Z,5.40
2024-03-12T07:27:17.982Z,4.73
2024-03-12T07:29:53.645Z,5.53
2024-03-12T07:35:37.364Z,5.60
2024-03-12T07:38:10.667Z,4.77
2024-03-12T07:40:44.132Z,4.50
2024-03-12T07:43:23.691Z,4.97
2024-03-12T07:45:59.830Z,6.17
2024-03-12T07:48:32.013Z,6.87
2024-03-12T07:51:06.821Z,5.90
2024-03-12T07:53:46.483Z,6.27
2024-03-12T07:56:15.823Z,6.30
2024-03-12T07:58:50.533Z,5.13
2024-03-12T08:01:22.696Z,0.00
2024-03-12T08:03:53.399Z,4.17
2024-03-12T08:06:25.317Z,6.17
2024-03-12T08:08:55.027Z,4.63
2024-03-12T08:11:23.601Z,3.47
2024-03-12T08:13:51.864Z,4.40
2024-03-12T08:16:23.728Z,6.00
2024-03-12T08:18:55.639Z,4.83
2024-03-12T08:21:34.701Z,3.63
2024-03-12T08:24:31.284Z,5.27
2024-03-12T08:27:11.615Z,4.40
2024-03-12T08:29:40.579Z,3.47
2024-03-12T08:32:10.222Z,3.93
2024-03-12T08:34:52.860Z,5.33
2024-03-12T08:37:24.131Z,4.77
2024-03-12T08:39:54.801Z,3.60
2024-03-12T08:42:23.422Z,3.97
2024-03-12T08:44:58.904Z,4.23
2024-03-12T08:47:28.930Z,5.33
2024-03-12T08:49:57.820Z,3.07
2024-03-12T08:52:32.798Z,4.43
2024-03-12T08:55:03.818Z,4.80
2024-03-12T08:57:36.209Z,0.00
2024-03-12T09:00:21.982Z,0.00
2024-03-12T09:03:12.108Z,0.00
2024-03-12T09:05:44.300Z,3.67
2024-03-12T09:08:16.132Z,4.20
2024-03-12T09:10:45.434Z,4.57
2024-03-12T09:16:38.914Z,5.57
2024-03-12T09:19:08.029Z,6.03
2024-03-12T09:21:54.788Z,4.43
2024-03-12T09:24:26.936Z,5.50
2024-03-12T09:26:57.582Z,5.97
2024-03-12T09:29:42.403Z,6.40
2024-03-12T09:32:15.352Z,4.73
2024-03-12T09:35:00.623Z,6.37
2024-03-12T09:37:50.174Z,6.13
2024-03-12T09:40:24.378Z,7.60
2024-03-12T09:43:01.057Z,5.20
2024-03-12T09:45:43.110Z,5.07
2024-03-12T09:48:22.882Z,6.97
2024-03-12T09:54:08.930Z,4.47
2024-03-12T09:56:50.742Z,6.33
2024-03-12T09:59:27.287Z,5.53
2024-03-12T10:02:05.692Z,4.70
2024-03-12T10:04:42.253Z,5.63
2024-03-12T10:07:16.657Z,4.97
2024-03-12T10:10:18.328Z,5.10
2024-03-12T10:13:35.920Z,4.90
2024-03-12T10:16:44.236Z,3.83
2024-03-12T10:19:20.792Z,4.60
2024-03-12T10:24:53.768Z,5.13
2024-03-12T10:31:03.409Z,4.23
2024-03-12T10:33:43.039Z,6.03
2024-03-12T10:40:23.892Z,4.23
2024-03-12T10:43:17.960Z,4.20
2024-03-12T10:46:37.694Z,4.70
2024-03-12T10:52:38.439Z,3.93
2024-03-12T10:55:20.154Z,3.90
2024-03-12T10:58:43.802Z,5.37
2024-03-12T11:04:18.697Z,3.77
2024-03-12T11:07:10.696Z,4.13
2024-03-12T11:09:59.236Z,5.40
2024-03-12T11:16:11.707Z,4.70
2024-03-12T11:23:15.478Z,4.10
2024-03-12T11:39:02.804Z,2.63
2024-03-12T11:42:24.805Z,2.73
2024-03-12T11:51:08.232Z,2.83
2024-03-12T11:56:46.438Z,2.97
2024-03-12T11:59:29.298Z,1.87
2024-03-12T12:02:04.612Z,3.40
2024-03-12T12:04:43.951Z,2.60
2024-03-12T12:07:21.144Z,3.37
2024-03-12T12:13:24.762Z,4.13
2024-03-12T12:21:59.324Z,2.57
2024-03-12T12:30:43.757Z,2.80
2024-03-12T13:48:02.790Z,1.57
2024-03-12T14:15:16.771Z,2.43
2024-03-12T16:00:26.540Z,4.40
2024-03-12T16:18:53.991Z,5.17
2024-03-12T19:02:48.265Z,3.63
2024-03-12T20:33:05.428Z,4.13
2024-03-12T21:38:42.750Z,3.40
2024-03-12T21:48:25.493Z,3.00
2024-03-12T21:55:17.402Z,2.90
2024-03-12T21:57:47.836Z,2.80
2024-03-12T22:14:53.161Z,2.43
2024-03-12T22:17:41.192Z,2.10
2024-03-12T22:45:54.916Z,2.10
2024-03-12T23:16:46.922Z,2.20
2024-03-12T23:22:53.237Z,2.77
2024-03-12T23:39:17.587Z,2.40
2024-03-12T23:44:54.576Z,2.40
2024-03-12T23:47:49.269Z,2.00
2024-03-12T23:50:54.448Z,3.00
